createdAt,value
2017-07-02T00:00:00.041Z,56.6
2017-07-02T00:01:01.471Z,56.5
2017-07-02T00:02:02.899Z,56.5
2017-07-02T00:03:04.327Z,56.7
2017-07-02T00:04:05.755Z,56.6
2017-07-02T00:05:07.189Z,56.5
2017-07-02T00:06:08.617Z,56.2
2017-07-02T00:07:10.047Z,56.4
2017-07-02T00:08:11.489Z,56.6
2017-07-02T00:09:12.918Z,56.5
2017-07-02T00:10:14.344Z,56.6
2017-07-02T00:11:15.774Z,56.4
2017-07-02T00:12:17.202Z,56.6
2017-07-02T00:13:18.630Z,56.5
2017-07-02T00:14:20.062Z,56.7
2017-07-02T00:15:21.489Z,56.4
2017-07-02T00:16:22.918Z,56.5
2017-07-02T00:17:24.347Z,56.3
2017-07-02T00:18:25.779Z,57.1
2017-07-02T00:19:27.207Z,56.4
2017-07-02T00:20:28.637Z,56.6
2017-07-02T00:21:30.068Z,56.7
2017-07-02T00:22:31.494Z,56.4
2017-07-02T00:23:32.926Z,56.5
2017-07-02T00:24:34.355Z,56.4
2017-07-02T00:25:35.783Z,56.3
2017-07-02T00:26:37.213Z,56.5
2017-07-02T00:27:38.647Z,56.5
2017-07-02T00:28:40.075Z,56.4
2017-07-02T00:29:41.501Z,56.5
2017-07-02T00:30:42.958Z,56.4
2017-07-02T00:31:44.388Z,56.5
2017-07-02T00:32:45.817Z,56.2
2017-07-02T00:33:47.246Z,56.5
2017-07-02T00:34:48.676Z,56.5
2017-07-02T00:35:50.104Z,56.5
2017-07-02T00:36:51.532Z,56.8
2017-07-02T00:37:52.964Z,56.3
2017-07-02T00:38:54.394Z,56.3
2017-07-02T00:39:55.821Z,56.3
2017-07-02T00:40:57.250Z,56.8
2017-07-02T00:41:58.678Z,56.4
2017-07-02T00:43:00.107Z,56.3
2017-07-02T00:44:01.536Z,56.4
2017-07-02T00:45:02.971Z,56.5
2017-07-02T00:46:04.402Z,56.8
2017-07-02T00:47:05.830Z,56.6
2017-07-02T00:48:07.260Z,56.6
2017-07-02T00:49:08.690Z,56.5
2017-07-02T00:50:10.115Z,56.3
2017-07-02T00:51:11.545Z,56.8
2017-07-02T00:52:12.976Z,56.7
2017-07-02T00:53:14.439Z,56.8
2017-07-02T00:54:15.874Z,56.4
2017-07-02T00:55:17.311Z,56.6
2017-07-02T00:56:18.741Z,56.4
2017-07-02T00:57:20.168Z,56.8
2017-07-02T00:58:21.608Z,56.5
2017-07-02T00:59:23.036Z,56.3
2017-07-02T01:00:24.465Z,56.5
2017-07-02T01:01:25.894Z,56.3
2017-07-02T01:02:27.321Z,56.4
2017-07-02T01:03:28.748Z,56.7
2017-07-02T01:04:30.182Z,56.7
2017-07-02T01:05:31.608Z,56.6
2017-07-02T01:06:33.047Z,56.3
2017-07-02T01:07:34.474Z,56.5
2017-07-02T01:08:35.905Z,57.1
2017-07-02T01:09:37.333Z,56.3
2017-07-02T01:10:38.760Z,56.9
2017-07-02T01:11:40.189Z,56.8
2017-07-02T01:12:41.616Z,56.7
2017-07-02T01:13:43.047Z,56.5
2017-07-02T01:14:44.476Z,56.5
2017-07-02T01:15:45.905Z,56.6
2017-07-02T01:16:47.334Z,56.7
2017-07-02T01:17:48.765Z,56.5
2017-07-02T01:18:50.191Z,56.6
2017-07-02T01:19:51.621Z,56.5
2017-07-02T01:20:53.052Z,56.2
2017-07-02T01:21:54.478Z,56.2
2017-07-02T01:22:55.905Z,56.5
2017-07-02T01:23:57.333Z,56.2
2017-07-02T01:24:58.761Z,56.3
2017-07-02T01:26:00.193Z,56.8
2017-07-02T01:27:01.622Z,56.7
2017-07-02T01:28:03.051Z,56.3
2017-07-02T01:29:04.482Z,56.6
2017-07-02T01:30:05.908Z,56.7
2017-07-02T01:31:07.338Z,56.3
2017-07-02T01:32:08.777Z,56.5
2017-07-02T01:33:10.197Z,56.8
2017-07-02T01:34:11.626Z,56.8
2017-07-02T01:35:13.052Z,56.7
2017-07-02T01:36:14.484Z,56.7
2017-07-02T01:37:15.909Z,56.6
2017-07-02T01:38:17.339Z,56.8
2017-07-02T01:39:18.768Z,56.6
2017-07-02T01:40:20.198Z,56.7
2017-07-02T01:41:21.625Z,56.7
2017-07-02T01:42:23.054Z,56.6
2017-07-02T01:43:24.482Z,56.7
2017-07-02T01:44:25.912Z,56.7
2017-07-02T01:45:27.343Z,56.5
2017-07-02T01:46:28.771Z,57.0
2017-07-02T01:47:30.205Z,56.9
2017-07-02T01:48:31.628Z,56.7
2017-07-02T01:49:33.058Z,56.5
2017-07-02T01:50:34.487Z,56.8
2017-07-02T01:51:35.915Z,56.8
2017-07-02T01:52:37.346Z,56.5
2017-07-02T01:53:38.791Z,56.4
2017-07-02T01:54:40.231Z,56.7
2017-07-02T01:55:41.648Z,56.9
2017-07-02T01:56:43.078Z,56.8
2017-07-02T01:57:44.505Z,56.6
2017-07-02T01:58:45.937Z,56.5
2017-07-02T01:59:47.364Z,56.9
2017-07-02T02:00:48.815Z,57.2
2017-07-02T02:01:50.244Z,57.0
2017-07-02T02:02:51.671Z,56.6
2017-07-02T02:03:53.097Z,57.1
2017-07-02T02:04:54.531Z,57.2
2017-07-02T02:05:55.962Z,57.0
2017-07-02T02:06:57.387Z,57.2
2017-07-02T02:07:58.818Z,57.2
2017-07-02T02:09:00.258Z,57.2
2017-07-02T02:10:01.684Z,57.1
2017-07-02T02:11:03.113Z,57.1
2017-07-02T02:12:04.549Z,57.3
2017-07-02T02:13:05.977Z,57.3
2017-07-02T02:14:07.405Z,56.6
2017-07-02T02:15:08.833Z,57.4
2017-07-02T02:16:10.259Z,57.3
2017-07-02T02:17:11.704Z,57.4
2017-07-02T02:18:13.129Z,57.4
2017-07-02T02:19:14.557Z,57.3
2017-07-02T02:20:15.988Z,57.4
2017-07-02T02:21:17.415Z,57.3
2017-07-02T02:22:18.845Z,57.3
2017-07-02T02:23:20.269Z,57.2
2017-07-02T02:24:21.703Z,57.2
2017-07-02T02:25:23.132Z,57.0
2017-07-02T02:26:24.563Z,57.4
2017-07-02T02:27:25.991Z,57.4
2017-07-02T02:28:27.419Z,57.3
2017-07-02T02:29:28.850Z,57.1
2017-07-02T02:30:30.289Z,57.3
2017-07-02T02:31:31.718Z,57.1
2017-07-02T02:32:33.148Z,57.1
2017-07-02T02:33:34.577Z,57.0
2017-07-02T02:34:36.003Z,57.1
2017-07-02T02:35:37.433Z,57.2
2017-07-02T02:36:38.862Z,57.2
2017-07-02T02:37:40.290Z,57.2
2017-07-02T02:38:41.717Z,57.2
2017-07-02T02:39:43.148Z,56.9
2017-07-02T02:40:44.578Z,56.9
2017-07-02T02:41:46.003Z,57.1
2017-07-02T02:42:47.432Z,57.2
2017-07-02T02:43:48.864Z,57.2
2017-07-02T02:44:50.288Z,57.5
2017-07-02T02:45:51.716Z,57.2
2017-07-02T02:46:53.144Z,57.1
2017-07-02T02:47:54.575Z,57.0
2017-07-02T02:48:56.003Z,57.1
2017-07-02T02:49:57.432Z,57.0
2017-07-02T02:50:58.862Z,57.0
2017-07-02T02:52:00.290Z,56.9
2017-07-02T02:53:01.717Z,57.1
2017-07-02T02:54:03.146Z,57.1
2017-07-02T02:55:04.576Z,57.1
2017-07-02T02:56:06.003Z,57.1
2017-07-02T02:57:07.439Z,57.1
2017-07-02T02:58:08.866Z,57.1
2017-07-02T02:59:10.300Z,57.2
2017-07-02T03:00:11.724Z,57.2
2017-07-02T03:01:13.154Z,57.5
2017-07-02T03:02:14.585Z,57.3
2017-07-02T03:03:16.010Z,57.0
2017-07-02T03:04:17.436Z,56.9
2017-07-02T03:05:18.866Z,57.1
2017-07-02T03:06:20.296Z,57.2
2017-07-02T03:07:21.726Z,57.1
2017-07-02T03:08:23.158Z,57.5
2017-07-02T03:09:24.582Z,57.6
2017-07-02T03:10:26.008Z,57.6
2017-07-02T03:11:27.440Z,57.4
2017-07-02T03:12:28.869Z,57.3
2017-07-02T03:13:30.300Z,57.5
2017-07-02T03:14:31.726Z,57.5
2017-07-02T03:15:33.153Z,57.2
2017-07-02T03:16:34.582Z,57.6
2017-07-02T03:17:36.010Z,57.3
2017-07-02T03:18:37.437Z,57.1
2017-07-02T03:19:38.908Z,57.6
2017-07-02T03:20:40.295Z,57.5
2017-07-02T03:21:41.722Z,57.2
2017-07-02T03:22:43.255Z,57.5
2017-07-02T03:23:44.685Z,57.6
2017-07-02T03:24:46.115Z,57.4
2017-07-02T03:25:47.547Z,57.2
2017-07-02T03:26:48.973Z,57.6
2017-07-02T03:27:50.401Z,57.6
2017-07-02T03:28:51.830Z,57.6
2017-07-02T03:29:53.257Z,57.7
2017-07-02T03:30:54.688Z,57.4
2017-07-02T03:31:56.118Z,57.2
2017-07-02T03:32:57.544Z,57.5
2017-07-02T03:33:58.973Z,57.5
2017-07-02T03:35:00.403Z,57.1
2017-07-02T03:36:01.829Z,57.5
2017-07-02T03:37:03.259Z,57.4
2017-07-02T03:38:04.688Z,57.6
2017-07-02T03:39:06.120Z,57.4
2017-07-02T03:40:07.548Z,57.5
2017-07-02T03:41:08.977Z,57.5
2017-07-02T03:42:10.406Z,57.4
2017-07-02T03:43:11.838Z,57.5
2017-07-02T03:44:13.273Z,57.5
2017-07-02T03:45:14.700Z,57.6
2017-07-02T03:46:16.130Z,57.6
2017-07-02T03:47:17.561Z,57.2
2017-07-02T03:48:18.990Z,57.1
2017-07-02T03:49:20.423Z,57.7
2017-07-02T03:50:21.870Z,56.9
2017-07-02T03:51:23.299Z,57.6
2017-07-02T03:52:24.729Z,57.6
2017-07-02T03:53:26.162Z,57.5
2017-07-02T03:54:27.593Z,57.5
2017-07-02T03:55:29.019Z,57.5
2017-07-02T03:56:30.451Z,57.4
2017-07-02T03:57:31.894Z,57.5
2017-07-02T03:58:33.327Z,57.5
2017-07-02T03:59:34.752Z,57.2
2017-07-02T04:00:36.184Z,57.6
2017-07-02T04:01:37.611Z,57.5
2017-07-02T04:02:39.046Z,57.5
2017-07-02T04:03:40.476Z,57.6
2017-07-02T04:04:41.904Z,57.2
2017-07-02T04:05:43.333Z,57.6
2017-07-02T04:06:44.760Z,57.7
2017-07-02T04:07:46.189Z,57.2
2017-07-02T04:08:47.620Z,57.1
2017-07-02T04:09:49.048Z,57.0
2017-07-02T04:10:50.478Z,57.6
2017-07-02T04:11:51.908Z,57.6
2017-07-02T04:12:53.347Z,57.5
2017-07-02T04:13:54.765Z,57.6
2017-07-02T04:14:56.195Z,57.0
2017-07-02T04:15:57.643Z,57.6
2017-07-02T04:16:59.074Z,57.2
2017-07-02T04:18:00.500Z,57.1
2017-07-02T04:19:01.927Z,57.7
2017-07-02T04:20:03.361Z,57.7
2017-07-02T04:21:04.788Z,57.3
2017-07-02T04:22:06.218Z,57.2
2017-07-02T04:23:07.648Z,57.0
2017-07-02T04:24:09.076Z,57.0
2017-07-02T04:25:10.506Z,57.1
2017-07-02T04:26:11.941Z,57.5
2017-07-02T04:27:13.371Z,57.1
2017-07-02T04:28:14.798Z,57.1
2017-07-02T04:29:16.228Z,57.1
2017-07-02T04:30:17.658Z,57.2
2017-07-02T04:31:19.086Z,57.2
2017-07-02T04:32:20.516Z,57.1
2017-07-02T04:33:21.948Z,57.1
2017-07-02T04:34:23.377Z,57.4
2017-07-02T04:35:24.805Z,57.1
2017-07-02T04:36:26.236Z,57.1
2017-07-02T04:37:27.668Z,57.2
2017-07-02T04:38:29.099Z,57.3
2017-07-02T04:39:30.537Z,57.4
2017-07-02T04:40:31.971Z,57.3
2017-07-02T04:41:33.399Z,57.3
2017-07-02T04:42:34.825Z,57.3
2017-07-02T04:43:36.257Z,57.3
2017-07-02T04:44:37.697Z,57.3
2017-07-02T04:45:39.123Z,57.0
2017-07-02T04:46:40.549Z,57.2
2017-07-02T04:47:41.983Z,57.0
2017-07-02T04:48:43.411Z,57.3
2017-07-02T04:51:44.834Z,56.7
2017-07-02T04:52:46.266Z,56.8
2017-07-02T04:53:47.703Z,56.6
2017-07-02T04:54:49.128Z,57.0
2017-07-02T04:55:50.597Z,56.8
2017-07-02T04:56:51.995Z,56.5
2017-07-02T04:57:53.424Z,56.8
2017-07-02T04:58:54.855Z,56.6
2017-07-02T04:59:56.281Z,56.8
2017-07-02T05:00:57.709Z,56.9
2017-07-02T05:01:59.134Z,56.7
2017-07-02T05:03:00.568Z,56.7
2017-07-02T05:04:01.996Z,56.6
2017-07-02T05:05:03.461Z,56.6
2017-07-02T05:06:04.855Z,56.7
2017-07-02T05:07:06.287Z,56.9
2017-07-02T05:08:07.718Z,56.6
2017-07-02T05:09:09.149Z,56.8
2017-07-02T05:10:10.578Z,57.0
2017-07-02T05:11:12.008Z,56.8
2017-07-02T05:12:13.446Z,56.6
2017-07-02T05:13:14.872Z,56.9
2017-07-02T05:14:16.308Z,56.8
2017-07-02T05:15:17.730Z,56.7
2017-07-02T05:16:19.159Z,56.9
2017-07-02T05:17:20.592Z,56.7
2017-07-02T05:18:22.018Z,56.5
2017-07-02T05:19:23.451Z,56.7
2017-07-02T05:20:24.881Z,56.8
2017-07-02T05:21:26.310Z,56.6
2017-07-02T05:22:27.744Z,56.7
2017-07-02T05:23:29.173Z,56.6
2017-07-02T05:24:30.605Z,56.8
2017-07-02T05:25:32.035Z,56.6
2017-07-02T05:26:33.466Z,56.8
2017-07-02T05:27:34.897Z,56.6
2017-07-02T05:28:36.327Z,56.5
2017-07-02T05:29:37.757Z,56.8
2017-07-02T05:30:39.184Z,56.7
2017-07-02T05:31:40.615Z,56.6
2017-07-02T05:32:42.044Z,56.8
2017-07-02T05:33:43.475Z,56.6
2017-07-02T05:34:44.902Z,56.5
2017-07-02T05:35:46.320Z,56.8
2017-07-02T05:36:47.764Z,56.6
2017-07-02T05:37:49.191Z,56.6
2017-07-02T05:38:50.619Z,56.7
2017-07-02T05:39:52.051Z,56.8
2017-07-02T05:40:53.479Z,56.6
2017-07-02T05:41:54.913Z,56.6
2017-07-02T05:42:56.344Z,56.6
2017-07-02T05:43:57.786Z,56.3
2017-07-02T05:44:59.215Z,56.5
2017-07-02T05:46:00.645Z,56.5
2017-07-02T05:47:02.078Z,56.3
2017-07-02T05:48:03.506Z,56.7
2017-07-02T05:49:04.955Z,56.6
2017-07-02T05:50:06.384Z,56.5
2017-07-02T05:51:07.814Z,57.1
2017-07-02T05:52:09.248Z,56.6
2017-07-02T05:53:10.676Z,57.1
2017-07-02T05:54:12.105Z,56.4
2017-07-02T05:55:13.535Z,56.4
2017-07-02T05:56:14.965Z,56.3
2017-07-02T05:57:16.391Z,56.8
2017-07-02T05:58:17.822Z,56.4
2017-07-02T05:59:19.251Z,56.6
2017-07-02T06:00:20.681Z,57.2
2017-07-02T06:01:22.114Z,56.3
2017-07-02T06:02:23.549Z,56.2
2017-07-02T06:03:24.980Z,56.8
2017-07-02T06:04:26.411Z,56.4
2017-07-02T06:05:27.842Z,56.8
2017-07-02T06:06:29.272Z,56.3
2017-07-02T06:07:30.719Z,56.5
2017-07-02T06:08:32.144Z,56.5
2017-07-02T06:09:33.574Z,56.4
2017-07-02T06:10:35.006Z,56.4
2017-07-02T06:11:36.437Z,56.5
2017-07-02T06:12:37.869Z,56.3
2017-07-02T06:13:39.297Z,56.4
2017-07-02T06:14:40.727Z,56.3
2017-07-02T06:15:42.159Z,56.6
2017-07-02T06:16:43.590Z,56.6
2017-07-02T06:17:45.022Z,56.6
2017-07-02T06:18:46.453Z,56.5
2017-07-02T06:19:47.887Z,56.7
2017-07-02T06:20:49.316Z,56.4
2017-07-02T06:21:50.746Z,56.6
2017-07-02T06:22:52.180Z,56.4
2017-07-02T06:23:53.605Z,56.6
2017-07-02T06:24:55.077Z,56.7
2017-07-02T06:25:56.483Z,56.7
2017-07-02T06:26:57.911Z,56.7
2017-07-02T06:27:59.343Z,56.4
2017-07-02T06:29:00.773Z,56.7
2017-07-02T06:30:02.203Z,56.6
2017-07-02T06:31:03.634Z,56.8
2017-07-02T06:32:05.065Z,56.5
2017-07-02T06:33:06.500Z,56.7
2017-07-02T06:34:07.939Z,56.4
2017-07-02T06:35:09.370Z,56.5
2017-07-02T06:36:10.801Z,56.8
2017-07-02T06:37:12.233Z,56.3
2017-07-02T06:38:13.662Z,56.5
2017-07-02T06:39:15.093Z,56.3
2017-07-02T06:40:16.526Z,56.6
2017-07-02T06:41:17.957Z,56.2
2017-07-02T06:42:19.388Z,56.2
2017-07-02T06:43:20.817Z,56.3
2017-07-02T06:44:22.282Z,56.2
2017-07-02T06:45:23.716Z,56.4
2017-07-02T06:46:25.146Z,56.3
2017-07-02T06:47:26.581Z,55.9
2017-07-02T06:48:28.006Z,56.3
2017-07-02T06:49:29.437Z,56.3
2017-07-02T06:50:30.869Z,56.1
2017-07-02T06:51:32.297Z,56.2
2017-07-02T06:52:33.729Z,56.1
2017-07-02T06:53:35.160Z,56.0
2017-07-02T06:54:36.590Z,55.8
2017-07-02T06:55:38.021Z,55.7
2017-07-02T06:56:39.457Z,56.0
2017-07-02T06:57:40.887Z,56.2
2017-07-02T06:58:42.320Z,55.7
2017-07-02T06:59:43.751Z,55.7
2017-07-02T07:00:45.184Z,56.1
2017-07-02T07:01:46.612Z,56.1
2017-07-02T07:02:48.048Z,56.1
2017-07-02T07:03:49.479Z,56.0
2017-07-02T07:04:50.910Z,56.2
2017-07-02T07:05:52.340Z,55.7
2017-07-02T07:06:53.773Z,56.1
2017-07-02T07:07:55.205Z,55.8
2017-07-02T07:08:56.636Z,55.7
2017-07-02T07:09:58.066Z,55.8
2017-07-02T07:10:59.496Z,55.9
2017-07-02T07:12:00.927Z,56.0
2017-07-02T07:13:02.357Z,55.8
2017-07-02T07:14:03.790Z,55.9
2017-07-02T07:15:05.220Z,55.8
2017-07-02T07:16:06.650Z,55.7
2017-07-02T07:17:08.081Z,55.6
2017-07-02T07:18:09.515Z,55.5
2017-07-02T07:19:10.946Z,55.7
2017-07-02T07:20:12.376Z,55.9
2017-07-02T07:21:13.805Z,55.8
2017-07-02T07:22:15.238Z,55.7
2017-07-02T07:23:16.673Z,55.5
2017-07-02T07:24:18.103Z,55.5
2017-07-02T07:25:19.536Z,55.5
2017-07-02T07:26:20.976Z,55.7
2017-07-02T07:27:22.396Z,55.5
2017-07-02T07:28:23.826Z,55.5
2017-07-02T07:29:25.257Z,55.8
2017-07-02T07:30:26.690Z,55.9
2017-07-02T07:31:28.121Z,56.0
2017-07-02T07:32:29.552Z,55.4
2017-07-02T07:33:30.988Z,55.9
2017-07-02T07:34:32.414Z,55.9
2017-07-02T07:35:33.845Z,55.6
2017-07-02T07:36:35.280Z,55.1
2017-07-02T07:37:36.709Z,55.5
2017-07-02T07:38:38.139Z,55.0
2017-07-02T07:39:39.573Z,55.1
2017-07-02T07:40:41.002Z,55.0
2017-07-02T07:41:42.433Z,55.2
2017-07-02T07:42:43.863Z,54.2
2017-07-02T07:43:45.295Z,53.5
2017-07-02T07:44:46.729Z,52.5
2017-07-02T07:45:48.158Z,52.2
2017-07-02T07:46:49.592Z,51.9
2017-07-02T07:47:51.019Z,51.6
2017-07-02T07:48:52.455Z,51.5
2017-07-02T07:49:53.884Z,50.7
2017-07-02T07:50:55.316Z,51.2
2017-07-02T07:51:56.749Z,51.0
2017-07-02T07:52:58.183Z,50.4
2017-07-02T07:53:59.615Z,51.3
2017-07-02T07:55:01.051Z,51.0
2017-07-02T07:56:02.480Z,50.6
2017-07-02T07:57:03.911Z,50.6
2017-07-02T07:58:05.344Z,50.6
2017-07-02T07:59:06.776Z,50.5
2017-07-02T08:00:08.207Z,50.5
2017-07-02T08:01:09.638Z,50.6
2017-07-02T08:02:11.073Z,50.7
2017-07-02T08:03:12.508Z,50.8
2017-07-02T08:04:13.943Z,50.5
2017-07-02T08:05:15.374Z,50.5
2017-07-02T08:06:16.809Z,50.4
2017-07-02T08:07:18.249Z,50.7
2017-07-02T08:08:19.679Z,50.6
2017-07-02T08:09:21.111Z,50.5
2017-07-02T08:10:22.545Z,50.7
2017-07-02T08:11:23.973Z,50.5
2017-07-02T08:12:25.406Z,50.6
2017-07-02T08:13:26.839Z,50.3
2017-07-02T08:14:28.272Z,50.3
2017-07-02T08:15:29.705Z,50.4
2017-07-02T08:16:31.138Z,50.5
2017-07-02T08:17:32.572Z,50.3
2017-07-02T08:18:34.002Z,50.5
2017-07-02T08:19:35.433Z,50.5
2017-07-02T08:20:36.868Z,50.4
2017-07-02T08:21:38.298Z,50.4
2017-07-02T08:22:39.732Z,50.3
2017-07-02T08:23:41.164Z,50.3
2017-07-02T08:24:42.691Z,50.6
2017-07-02T08:25:44.123Z,50.7
2017-07-02T08:26:45.554Z,51.7
2017-07-02T08:27:46.988Z,51.2
2017-07-02T08:28:48.429Z,51.7
2017-07-02T08:29:49.851Z,51.8
2017-07-02T08:30:51.284Z,52.1
2017-07-02T08:31:52.716Z,52.4
2017-07-02T08:32:54.149Z,52.6
2017-07-02T08:33:55.580Z,52.6
2017-07-02T08:34:57.013Z,52.9
2017-07-02T08:35:58.455Z,53.4
2017-07-02T08:36:59.898Z,53.5
2017-07-02T08:38:01.328Z,53.6
2017-07-02T08:39:02.761Z,53.5
2017-07-02T08:40:04.197Z,53.2
2017-07-02T08:41:05.627Z,53.6
2017-07-02T08:42:07.059Z,53.6
2017-07-02T08:43:08.492Z,53.5
2017-07-02T08:44:09.925Z,53.6
2017-07-02T08:45:11.353Z,53.1
2017-07-02T08:46:12.786Z,52.6
2017-07-02T08:47:14.220Z,52.7
2017-07-02T08:48:15.655Z,52.6
2017-07-02T08:49:17.085Z,53.0
2017-07-02T08:50:18.520Z,52.9
2017-07-02T08:51:19.953Z,53.0
2017-07-02T08:52:21.392Z,52.7
2017-07-02T08:53:22.827Z,52.7
2017-07-02T08:54:24.261Z,52.8
2017-07-02T08:55:25.691Z,52.9
2017-07-02T08:56:27.124Z,52.8
2017-07-02T08:57:28.558Z,52.8
2017-07-02T08:58:29.990Z,52.9
2017-07-02T08:59:31.422Z,52.8
2017-07-02T09:00:32.857Z,52.8
2017-07-02T09:01:34.295Z,52.7
2017-07-02T09:02:35.727Z,52.5
2017-07-02T09:03:37.167Z,52.5
2017-07-02T09:04:38.595Z,52.7
2017-07-02T09:05:40.024Z,52.4
2017-07-02T09:06:41.457Z,52.0
2017-07-02T09:07:42.890Z,52.1
2017-07-02T09:08:44.319Z,51.9
2017-07-02T09:09:45.754Z,52.1
2017-07-02T09:10:47.183Z,51.6
2017-07-02T09:11:48.617Z,52.0
2017-07-02T09:12:50.044Z,52.1
2017-07-02T09:13:51.495Z,51.3
2017-07-02T09:14:53.001Z,51.3
2017-07-02T09:15:54.437Z,50.8
2017-07-02T09:16:55.865Z,51.7
2017-07-02T09:17:57.299Z,51.2
2017-07-02T09:18:58.749Z,50.7
2017-07-02T09:20:00.185Z,50.8
2017-07-02T09:21:01.617Z,50.9
2017-07-02T09:22:03.049Z,50.5
2017-07-02T09:23:04.481Z,50.7
2017-07-02T09:24:05.914Z,50.4
2017-07-02T09:25:07.354Z,50.4
2017-07-02T09:26:08.788Z,50.3
2017-07-02T09:27:10.221Z,50.2
2017-07-02T09:28:11.655Z,50.3
2017-07-02T09:29:13.088Z,50.3
2017-07-02T09:30:14.529Z,50.6
2017-07-02T09:31:15.965Z,50.3
2017-07-02T09:32:17.398Z,50.3
2017-07-02T09:33:18.830Z,50.3
2017-07-02T09:34:20.265Z,50.4
2017-07-02T09:35:21.698Z,50.0
2017-07-02T09:36:23.131Z,49.9
2017-07-02T09:37:24.564Z,50.5
2017-07-02T09:38:25.994Z,50.1
2017-07-02T09:39:27.428Z,50.5
2017-07-02T09:40:28.866Z,49.5
2017-07-02T09:41:30.295Z,49.5
2017-07-02T09:42:31.728Z,49.4
2017-07-02T09:43:33.162Z,49.1
2017-07-02T09:44:34.613Z,49.4
2017-07-02T09:45:36.048Z,49.5
2017-07-02T09:46:37.481Z,49.1
2017-07-02T09:47:38.917Z,49.1
2017-07-02T09:48:40.348Z,49.2
2017-07-02T09:49:41.783Z,49.3
2017-07-02T09:50:43.216Z,49.3
2017-07-02T09:51:44.648Z,49.2
2017-07-02T09:52:46.081Z,48.6
2017-07-02T09:53:47.515Z,48.6
2017-07-02T09:54:48.949Z,48.6
2017-07-02T09:55:50.378Z,48.4
2017-07-02T09:56:51.812Z,48.3
2017-07-02T09:57:53.248Z,48.6
2017-07-02T09:58:54.677Z,48.4
2017-07-02T09:59:56.116Z,48.6
2017-07-02T10:00:57.551Z,48.3
2017-07-02T10:01:58.989Z,48.3
2017-07-02T10:03:00.422Z,48.3
2017-07-02T10:04:01.855Z,48.3
2017-07-02T10:05:03.289Z,48.4
2017-07-02T10:06:04.730Z,48.3
2017-07-02T10:07:06.588Z,48.0
2017-07-02T10:08:08.018Z,47.6
2017-07-02T10:09:09.452Z,48.4
2017-07-02T10:10:10.891Z,48.1
2017-07-02T10:11:12.351Z,48.0
2017-07-02T10:12:14.161Z,48.3
2017-07-02T10:13:15.604Z,48.4
2017-07-02T10:14:17.039Z,48.1
2017-07-02T10:15:18.469Z,48.3
2017-07-02T10:16:19.931Z,48.3
2017-07-02T10:17:21.378Z,48.0
2017-07-02T10:18:22.799Z,48.0
2017-07-02T10:19:24.234Z,48.3
2017-07-02T10:20:25.664Z,47.9
2017-07-02T10:21:27.121Z,48.6
2017-07-02T10:22:28.553Z,48.5
2017-07-02T10:23:30.112Z,48.1
2017-07-02T10:24:31.552Z,48.6
2017-07-02T10:25:32.985Z,48.5
2017-07-02T10:26:34.420Z,48.4
2017-07-02T10:27:35.845Z,48.4
2017-07-02T10:28:37.285Z,47.9
2017-07-02T10:29:38.721Z,48.2
2017-07-02T10:30:40.151Z,48.4
2017-07-02T10:31:41.583Z,48.0
2017-07-02T10:32:43.092Z,47.7
2017-07-02T10:33:44.528Z,47.8
2017-07-02T10:34:45.965Z,48.0
2017-07-02T10:35:47.395Z,47.5
2017-07-02T10:36:48.842Z,47.4
2017-07-02T10:37:50.273Z,47.6
2017-07-02T10:38:51.715Z,47.4
2017-07-02T10:39:53.145Z,47.7
2017-07-02T10:40:54.578Z,47.7
2017-07-02T10:41:56.013Z,47.5
2017-07-02T10:42:57.446Z,47.6
2017-07-02T10:43:58.888Z,47.2
2017-07-02T10:45:00.482Z,47.1
2017-07-02T10:46:01.922Z,47.2
2017-07-02T10:47:03.359Z,47.2
2017-07-02T10:48:04.792Z,47.3
2017-07-02T10:49:06.228Z,47.3
2017-07-02T10:50:07.660Z,47.3
2017-07-02T10:51:09.097Z,47.2
2017-07-02T10:52:10.531Z,47.3
2017-07-02T10:53:11.963Z,46.9
2017-07-02T10:54:13.396Z,46.8
2017-07-02T10:55:14.833Z,46.7
2017-07-02T10:56:16.268Z,46.9
2017-07-02T10:57:17.701Z,46.9
2017-07-02T10:58:19.132Z,46.6
2017-07-02T10:59:20.566Z,46.8
2017-07-02T11:00:22.014Z,46.8
2017-07-02T11:01:38.427Z,46.6
2017-07-02T11:02:39.862Z,46.9
2017-07-02T11:03:41.290Z,47.2
2017-07-02T11:04:42.727Z,46.9
2017-07-02T11:05:44.162Z,47.3
2017-07-02T11:06:45.598Z,46.9
2017-07-02T11:07:47.025Z,46.9
2017-07-02T11:08:48.462Z,46.9
2017-07-02T11:09:49.894Z,47.2
2017-07-02T11:10:51.328Z,47.2
2017-07-02T11:11:52.760Z,47.4
2017-07-02T11:12:54.192Z,47.4
2017-07-02T11:13:55.673Z,47.3
2017-07-02T11:14:57.107Z,47.2
2017-07-02T11:15:58.864Z,47.2
2017-07-02T11:17:00.297Z,47.2
2017-07-02T11:18:01.732Z,47.1
2017-07-02T11:19:03.183Z,47.4
2017-07-02T11:20:04.618Z,47.2
2017-07-02T11:21:06.051Z,47.2
2017-07-02T11:22:07.483Z,47.3
2017-07-02T11:23:08.916Z,47.3
2017-07-02T11:24:10.349Z,47.4
2017-07-02T11:25:11.781Z,47.5
2017-07-02T11:26:13.211Z,47.5
2017-07-02T11:27:14.650Z,47.3
2017-07-02T11:28:16.083Z,47.4
2017-07-02T11:29:17.570Z,47.3
2017-07-02T11:30:19.002Z,47.5
2017-07-02T11:31:20.447Z,47.6
2017-07-02T11:32:21.905Z,47.6
2017-07-02T11:33:23.436Z,47.8
2017-07-02T11:34:24.866Z,47.9
2017-07-02T11:35:26.322Z,47.8
2017-07-02T11:36:27.740Z,48.0
2017-07-02T11:37:29.168Z,47.7
2017-07-02T11:38:30.689Z,47.9
2017-07-02T11:39:32.117Z,47.7
2017-07-02T11:40:33.552Z,47.4
2017-07-02T11:41:34.988Z,47.7
2017-07-02T11:42:36.425Z,47.8
2017-07-02T11:43:37.855Z,47.9
2017-07-02T11:44:39.299Z,47.4
2017-07-02T11:45:40.733Z,47.7
2017-07-02T11:46:42.180Z,47.4
2017-07-02T11:47:43.615Z,47.4
2017-07-02T11:48:45.047Z,47.8
2017-07-02T11:49:46.481Z,47.3
2017-07-02T11:50:47.913Z,47.6
2017-07-02T11:51:49.351Z,47.4
2017-07-02T11:52:50.812Z,47.7
2017-07-02T11:53:52.247Z,47.9
2017-07-02T11:54:53.684Z,47.9
2017-07-02T11:55:55.116Z,47.9
2017-07-02T11:56:56.550Z,47.5
2017-07-02T11:57:57.993Z,47.6
2017-07-02T11:58:59.426Z,47.9
2017-07-02T12:00:00.926Z,47.6
2017-07-02T12:01:02.367Z,48.0
2017-07-02T12:02:03.797Z,47.8
2017-07-02T12:03:05.231Z,47.6
2017-07-02T12:04:06.660Z,47.7
2017-07-02T12:05:08.092Z,47.4
2017-07-02T12:06:09.540Z,47.7
2017-07-02T12:07:10.963Z,47.9
2017-07-02T12:08:12.401Z,47.5
2017-07-02T12:09:13.910Z,48.0
2017-07-02T12:10:15.345Z,47.5
2017-07-02T12:11:16.777Z,47.8
2017-07-02T12:12:18.211Z,47.3
2017-07-02T12:13:19.640Z,47.3
2017-07-02T12:14:21.086Z,47.3
2017-07-02T12:15:22.520Z,47.7
2017-07-02T12:16:24.010Z,47.5
2017-07-02T12:17:25.438Z,48.0
2017-07-02T12:18:26.871Z,47.8
2017-07-02T12:19:28.342Z,47.6
2017-07-02T12:20:29.788Z,47.4
2017-07-02T12:21:31.247Z,47.4
2017-07-02T12:22:32.707Z,47.5
2017-07-02T12:23:34.492Z,47.4
2017-07-02T12:24:35.901Z,47.2
2017-07-02T12:25:37.420Z,47.0
2017-07-02T12:26:38.855Z,47.1
2017-07-02T12:27:40.298Z,47.1
2017-07-02T12:28:41.720Z,47.3
2017-07-02T12:29:43.150Z,46.7
2017-07-02T12:30:44.625Z,47.3
2017-07-02T12:31:46.055Z,47.2
2017-07-02T12:32:47.492Z,47.2
2017-07-02T12:33:48.925Z,46.8
2017-07-02T12:34:50.360Z,47.2
2017-07-02T12:35:53.270Z,46.9
2017-07-02T12:36:54.721Z,46.9
2017-07-02T12:37:56.142Z,47.2
2017-07-02T12:38:57.595Z,47.3
2017-07-02T12:39:59.016Z,47.2
2017-07-02T12:41:00.447Z,47.4
2017-07-02T12:42:01.901Z,47.2
2017-07-02T12:43:03.332Z,47.2
2017-07-02T12:44:04.790Z,47.2
2017-07-02T12:45:06.221Z,47.4
2017-07-02T12:46:07.650Z,46.9
2017-07-02T12:47:11.852Z,47.1
2017-07-02T12:48:13.282Z,47.5
2017-07-02T12:49:14.754Z,47.3
2017-07-02T12:50:16.181Z,47.5
2017-07-02T12:51:17.618Z,47.5
2017-07-02T12:52:19.599Z,48.1
2017-07-02T12:53:21.033Z,48.5
2017-07-02T12:54:22.460Z,47.9
2017-07-02T12:55:23.879Z,47.4
2017-07-02T12:56:25.324Z,47.3
2017-07-02T12:57:26.790Z,47.6
2017-07-02T12:58:28.215Z,47.5
2017-07-02T12:59:29.720Z,47.4
2017-07-02T13:00:31.150Z,47.3
2017-07-02T13:01:32.576Z,47.5
2017-07-02T13:02:34.012Z,47.8
2017-07-02T13:03:35.447Z,48.1
2017-07-02T13:04:36.891Z,47.9
2017-07-02T13:05:38.312Z,47.8
2017-07-02T13:06:39.783Z,48.0
2017-07-02T13:07:41.219Z,47.8
2017-07-02T13:08:42.647Z,48.0
2017-07-02T13:09:44.078Z,47.9
2017-07-02T13:10:45.509Z,47.5
2017-07-02T13:11:46.942Z,47.4
2017-07-02T13:12:48.378Z,47.3
2017-07-02T13:13:49.809Z,47.5
2017-07-02T13:14:51.241Z,47.6
2017-07-02T13:15:52.675Z,47.3
2017-07-02T13:16:54.109Z,47.5
2017-07-02T13:17:55.541Z,47.5
2017-07-02T13:18:56.973Z,47.4
2017-07-02T13:19:58.412Z,47.3
2017-07-02T13:20:59.835Z,47.8
2017-07-02T13:22:01.267Z,47.6
2017-07-02T13:23:02.703Z,47.8
2017-07-02T13:24:04.134Z,47.5
2017-07-02T13:25:05.566Z,47.7
2017-07-02T13:26:06.998Z,48.0
2017-07-02T13:27:08.429Z,47.6
2017-07-02T13:28:09.859Z,47.7
2017-07-02T13:29:11.292Z,47.9
2017-07-02T13:30:12.721Z,47.9
2017-07-02T13:31:14.415Z,48.5
2017-07-02T13:32:15.850Z,48.3
2017-07-02T13:33:17.282Z,48.6
2017-07-02T13:34:18.713Z,48.7
2017-07-02T13:35:20.145Z,48.3
2017-07-02T13:36:21.615Z,48.0
2017-07-02T13:37:23.051Z,48.4
2017-07-02T13:38:24.550Z,48.3
2017-07-02T13:39:25.981Z,48.3